CZMT

Details ICAO CZMT (ZMT)
Name MASSET
Region Canada
Timezone America/Vancouver (UTC-7.0)
Plans Departing 10
Arriving 13
Stats Elevation 25 ft / 8 m (AMSL)
Location 54.024807° -132.117645°
Runways 1
Magnetic Variation 18.085° E
Sunrise 2018-05-26 12:30:42 UTC / 2018-05-26 05:30:42 Local
Sunset 2018-05-27 05:03:17 UTC / 2018-05-26 22:03:17 Local
Advertisement - Login to hide

Runways

ID Width Length Bearing (true) Bearing (mag) Surface Threshold Offset Overrun Length
13 98 ft / 30 m 5,017 ft / 1,529 m 144.74° 126.65° Asphalt 0 ft / 0 m 0 ft / 0 m
31 98 ft / 30 m 5,017 ft / 1,529 m 324.75° 306.66° Asphalt 0 ft / 0 m 0 ft / 0 m

Map

Weather


0- 5 10 15 20 25 30 35+ Temperature / ° C

Clouds and Precipitation
Forecast for 2018-05-26 18:00 UTC. Updated 5 hours ago

Ground ~20,000 ft ~40,000 ft Winds

METAR

CZMT 262200Z 19007G15KT 160V230 15SM FEW006 SCT012 BKN020 OVC040 13/07 A2981 RMK CF1SC3SC2SC2 SLP097

TAF

TAF AMD CZMT 262058Z 2620/2624 19010G20KT P6SM FEW007 BKN030 BKN220 TEMPO 2620/2624 4SM -SHRA BR FEW005 BKN008 RMK NXT FCST WILL BE ISSUED AT 271415Z

Frequencies

Unicom 122.70 MHz CTAF/UNICOM
Warning: Do not use this data for real-world aviation or navigation. No guarantee of current accuracy is given.